createdAt,value
2022-07-31T00:00:30.899Z,2.10
2022-07-31T00:03:08.616Z,2.00
2022-07-31T00:05:38.680Z,1.80
2022-07-31T00:08:11.391Z,1.70
2022-07-31T00:10:40.397Z,1.50
2022-07-31T00:13:11.411Z,1.70
2022-07-31T00:15:40.559Z,1.40
2022-07-31T00:18:09.402Z,1.20
2022-07-31T00:20:38.222Z,1.30
2022-07-31T00:23:07.433Z,1.30
2022-07-31T00:25:36.475Z,1.30
2022-07-31T00:28:07.299Z,1.40
2022-07-31T00:30:36.225Z,1.00
2022-07-31T00:33:05.901Z,1.00
2022-07-31T00:35:34.703Z,0.80
2022-07-31T00:40:52.664Z,1.00
2022-07-31T00:43:21.860Z,1.10
2022-07-31T00:45:58.548Z,0.80
2022-07-31T00:48:28.119Z,0.90
2022-07-31T00:50:57.148Z,0.70
2022-07-31T00:53:26.086Z,0.80
2022-07-31T00:55:56.741Z,0.80
2022-07-31T00:58:26.678Z,0.80
2022-07-31T01:00:58.635Z,0.70
2022-07-31T01:03:27.386Z,0.50
2022-07-31T01:05:56.313Z,0.60
2022-07-31T01:08:25.349Z,0.60
2022-07-31T01:10:58.872Z,0.80
2022-07-31T01:13:35.931Z,0.90
2022-07-31T01:16:09.476Z,0.70
2022-07-31T01:18:39.521Z,0.60
2022-07-31T01:21:11.890Z,0.70
2022-07-31T01:24:04.232Z,0.70
2022-07-31T01:26:59.042Z,0.80
2022-07-31T01:29:32.591Z,0.70
2022-07-31T01:32:06.002Z,0.90
2022-07-31T01:34:41.425Z,0.90
2022-07-31T01:37:17.525Z,0.90
2022-07-31T01:39:54.610Z,0.80
2022-07-31T01:42:26.644Z,1.00
2022-07-31T01:45:00.266Z,0.80
2022-07-31T01:47:32.617Z,0.70
2022-07-31T01:50:05.475Z,0.80
2022-07-31T01:52:36.389Z,0.70
2022-07-31T01:55:13.018Z,0.90
2022-07-31T01:57:45.094Z,0.40
2022-07-31T02:00:33.929Z,0.60
2022-07-31T02:03:13.298Z,0.60
2022-07-31T02:05:44.448Z,0.60
2022-07-31T02:08:17.188Z,0.70
2022-07-31T02:10:47.628Z,0.70
2022-07-31T02:13:17.849Z,0.70
2022-07-31T02:15:48.392Z,0.60
2022-07-31T02:18:23.001Z,0.50
2022-07-31T02:21:17.426Z,0.50
2022-07-31T02:23:46.483Z,0.70
2022-07-31T02:26:16.815Z,0.60
2022-07-31T02:31:17.294Z,0.60
2022-07-31T02:33:49.279Z,0.50
2022-07-31T02:36:21.605Z,0.70
2022-07-31T02:38:52.310Z,0.60
2022-07-31T02:41:22.477Z,0.40
2022-07-31T02:43:52.614Z,0.70
2022-07-31T02:46:23.389Z,0.60
2022-07-31T02:48:52.696Z,1.00
2022-07-31T02:51:24.353Z,0.40
2022-07-31T02:53:55.894Z,0.60
2022-07-31T02:58:58.091Z,0.70
2022-07-31T03:01:28.217Z,0.50
2022-07-31T03:03:57.802Z,0.70
2022-07-31T03:06:29.899Z,0.60
2022-07-31T03:08:59.066Z,0.80
2022-07-31T03:11:28.185Z,0.80
2022-07-31T03:14:02.739Z,0.50
2022-07-31T03:16:33.545Z,0.70
2022-07-31T03:19:05.098Z,0.60
2022-07-31T03:21:35.679Z,0.40
2022-07-31T03:24:06.449Z,0.60
2022-07-31T03:26:37.274Z,0.60
2022-07-31T03:29:36.100Z,0.50
2022-07-31T03:31:55.891Z,0.70
2022-07-31T03:34:24.647Z,0.60
2022-07-31T03:36:55.012Z,0.80
2022-07-31T03:39:24.657Z,0.90
2022-07-31T03:41:56.675Z,0.70
2022-07-31T03:44:26.126Z,0.50
2022-07-31T03:46:55.239Z,0.50
2022-07-31T03:49:24.974Z,0.50
2022-07-31T03:51:54.449Z,0.70
2022-07-31T03:54:23.467Z,0.60
2022-07-31T03:57:08.186Z,0.60
2022-07-31T03:59:47.967Z,0.50
2022-07-31T04:02:19.235Z,0.60
2022-07-31T04:04:51.307Z,0.70
2022-07-31T04:07:20.706Z,1.00
2022-07-31T04:09:49.794Z,0.60
2022-07-31T04:12:19.008Z,0.80
2022-07-31T04:14:47.996Z,0.50
2022-07-31T04:17:16.878Z,0.60
2022-07-31T04:19:45.827Z,0.50
2022-07-31T04:22:14.817Z,0.60
2022-07-31T04:24:43.720Z,0.90
2022-07-31T04:27:48.322Z,0.60
2022-07-31T04:30:18.878Z,0.50
2022-07-31T04:32:48.820Z,0.70
2022-07-31T04:35:22.675Z,0.90
2022-07-31T04:37:51.631Z,0.60
2022-07-31T04:40:25.800Z,0.60
2022-07-31T04:42:55.772Z,0.50
2022-07-31T04:45:25.381Z,0.60
2022-07-31T04:47:55.173Z,0.50
2022-07-31T04:50:24.132Z,0.70
2022-07-31T04:53:00.455Z,0.70
2022-07-31T04:55:34.805Z,0.70
2022-07-31T04:58:04.329Z,0.80
2022-07-31T05:00:33.282Z,0.60
2022-07-31T05:03:02.499Z,0.50
2022-07-31T05:05:31.982Z,0.60
2022-07-31T05:08:01.687Z,0.70
2022-07-31T05:10:57.131Z,1.00
2022-07-31T05:13:26.136Z,0.60
2022-07-31T05:15:57.374Z,0.80
2022-07-31T05:18:26.363Z,0.80
2022-07-31T05:21:33.563Z,0.90
2022-07-31T05:24:33.332Z,1.00
2022-07-31T05:27:09.003Z,0.90
2022-07-31T05:29:38.490Z,0.90
2022-07-31T05:32:08.782Z,1.00
2022-07-31T05:34:39.044Z,0.80
2022-07-31T05:37:08.003Z,0.90
2022-07-31T05:39:40.654Z,1.20
2022-07-31T05:42:28.103Z,1.00
2022-07-31T05:44:59.886Z,0.90
2022-07-31T05:47:40.789Z,1.00
2022-07-31T05:50:13.805Z,1.20
2022-07-31T05:52:43.534Z,1.10
2022-07-31T05:55:32.946Z,1.30
2022-07-31T05:58:27.968Z,1.20
2022-07-31T06:00:56.893Z,1.50
2022-07-31T06:03:29.180Z,1.20
2022-07-31T06:06:03.948Z,1.40
2022-07-31T06:08:33.461Z,1.60
2022-07-31T06:11:02.680Z,1.50
2022-07-31T06:13:31.883Z,4.10
2022-07-31T06:16:14.276Z,1.80
2022-07-31T06:18:44.018Z,2.00
2022-07-31T06:23:41.433Z,16.00
2022-07-31T06:26:27.737Z,18.60
2022-07-31T06:28:56.760Z,5.80
2022-07-31T06:31:26.141Z,3.10
2022-07-31T06:33:57.954Z,2.00
2022-07-31T06:36:30.521Z,1.90
2022-07-31T06:39:00.510Z,2.00
2022-07-31T06:41:46.646Z,1.90
2022-07-31T06:44:40.432Z,1.90
2022-07-31T06:47:34.542Z,1.80
2022-07-31T06:50:11.205Z,1.70
2022-07-31T06:52:49.234Z,1.90
2022-07-31T06:55:18.178Z,2.00
2022-07-31T06:57:47.329Z,2.00
2022-07-31T07:00:20.369Z,3.30
2022-07-31T07:02:51.712Z,2.60
2022-07-31T07:05:21.062Z,2.00
2022-07-31T07:07:52.494Z,1.80
2022-07-31T07:10:21.930Z,1.80
2022-07-31T07:13:17.004Z,2.20
2022-07-31T07:15:46.004Z,2.60
2022-07-31T07:18:16.459Z,4.30
2022-07-31T07:20:54.829Z,3.40
2022-07-31T07:23:25.985Z,3.10
2022-07-31T07:26:33.817Z,1.90
2022-07-31T07:29:03.774Z,2.40
2022-07-31T07:31:32.883Z,2.00
2022-07-31T07:34:05.676Z,2.60
2022-07-31T07:36:34.798Z,2.00
2022-07-31T07:39:11.815Z,2.00
2022-07-31T07:41:41.855Z,2.30
2022-07-31T07:44:10.667Z,2.80
2022-07-31T07:46:39.665Z,4.20
2022-07-31T07:49:09.282Z,2.40
2022-07-31T07:52:10.192Z,2.40
2022-07-31T07:54:50.809Z,1.40
2022-07-31T07:57:43.479Z,2.80
2022-07-31T08:00:41.844Z,2.00
2022-07-31T08:03:49.567Z,2.70
2022-07-31T08:06:04.675Z,1.90
2022-07-31T08:08:33.947Z,1.70
2022-07-31T08:11:23.098Z,1.90
2022-07-31T08:13:59.210Z,2.30
2022-07-31T08:16:43.714Z,2.80
2022-07-31T08:19:12.721Z,2.40
2022-07-31T08:21:43.572Z,2.30
2022-07-31T08:24:12.853Z,2.00
2022-07-31T08:27:03.973Z,2.40
2022-07-31T08:29:39.916Z,1.60
2022-07-31T08:32:21.830Z,1.80
2022-07-31T08:35:10.049Z,1.70
2022-07-31T08:37:52.179Z,1.60
2022-07-31T08:40:34.931Z,1.80
2022-07-31T08:46:07.352Z,2.20
2022-07-31T08:48:42.135Z,2.00
2022-07-31T08:51:13.080Z,4.80
2022-07-31T08:54:11.792Z,2.80
2022-07-31T08:56:41.640Z,2.50
2022-07-31T08:59:10.536Z,2.10
2022-07-31T09:01:40.514Z,2.00
2022-07-31T09:04:09.367Z,2.80
2022-07-31T09:06:39.223Z,2.30
2022-07-31T09:09:08.083Z,2.10
2022-07-31T09:11:47.154Z,1.80
2022-07-31T09:14:49.145Z,2.30
2022-07-31T09:17:18.101Z,2.40
2022-07-31T09:19:53.556Z,2.10
2022-07-31T09:22:31.073Z,1.90
2022-07-31T09:25:11.781Z,2.30
2022-07-31T09:27:40.952Z,5.60
2022-07-31T09:30:11.857Z,2.50
2022-07-31T09:33:17.399Z,2.30
2022-07-31T09:36:10.347Z,2.30
2022-07-31T09:38:41.794Z,5.00
2022-07-31T09:42:00.831Z,3.00
2022-07-31T09:44:51.533Z,3.10
2022-07-31T09:47:26.247Z,3.70
2022-07-31T09:49:58.139Z,2.70
2022-07-31T09:52:28.795Z,3.20
2022-07-31T10:24:07.486Z,3.40
2022-07-31T10:26:59.266Z,4.50
2022-07-31T10:29:27.487Z,4.30
2022-07-31T10:32:03.122Z,4.10
2022-07-31T10:34:34.938Z,3.70
2022-07-31T10:37:32.092Z,3.30
2022-07-31T10:40:27.210Z,3.50
2022-07-31T10:43:27.293Z,3.20
2022-07-31T10:46:30.323Z,5.00
2022-07-31T10:49:18.058Z,3.10
2022-07-31T10:52:32.597Z,3.70
2022-07-31T10:55:31.811Z,3.10
2022-07-31T10:58:30.492Z,3.20
2022-07-31T11:01:09.736Z,2.90
2022-07-31T11:03:59.307Z,4.40
2022-07-31T11:06:42.976Z,5.90
2022-07-31T11:09:45.459Z,3.30
2022-07-31T11:13:04.484Z,4.20
2022-07-31T11:18:37.647Z,4.20
2022-07-31T11:21:29.127Z,2.70
2022-07-31T11:24:04.098Z,3.90
2022-07-31T11:26:41.343Z,4.40
2022-07-31T11:29:59.507Z,5.30
2022-07-31T11:32:14.570Z,5.20
2022-07-31T11:34:52.834Z,6.50
2022-07-31T11:37:23.557Z,5.90
2022-07-31T11:39:53.978Z,6.70
2022-07-31T11:42:27.299Z,5.70
2022-07-31T11:45:12.363Z,6.10
2022-07-31T11:48:10.777Z,6.00
2022-07-31T11:50:40.547Z,5.90
2022-07-31T11:53:11.091Z,6.10
2022-07-31T11:55:48.515Z,5.60
2022-07-31T11:58:19.221Z,6.90
2022-07-31T12:00:53.258Z,6.10
2022-07-31T12:03:25.971Z,5.50
2022-07-31T12:05:55.778Z,5.30
2022-07-31T12:08:26.775Z,5.60
2022-07-31T12:10:57.435Z,5.70
2022-07-31T12:13:27.208Z,5.60
2022-07-31T12:15:59.439Z,6.10
2022-07-31T12:18:30.904Z,5.60
2022-07-31T12:21:02.607Z,5.30
2022-07-31T12:23:42.406Z,5.50
2022-07-31T12:26:21.199Z,6.00
2022-07-31T12:28:58.881Z,6.20
2022-07-31T12:31:28.295Z,4.70
2022-07-31T12:33:57.248Z,5.40
2022-07-31T12:36:27.095Z,5.20
2022-07-31T12:39:11.593Z,4.90
2022-07-31T12:41:43.414Z,5.10
2022-07-31T12:44:14.643Z,4.50
2022-07-31T12:46:44.111Z,4.20
2022-07-31T12:49:13.537Z,4.40
2022-07-31T12:51:44.978Z,4.80
2022-07-31T12:54:17.092Z,4.60
2022-07-31T12:56:46.586Z,4.80
2022-07-31T13:01:44.680Z,4.20
2022-07-31T13:04:19.314Z,5.00
2022-07-31T13:06:50.602Z,4.50
2022-07-31T13:09:20.755Z,4.80
2022-07-31T13:14:23.481Z,4.40
2022-07-31T13:16:54.376Z,5.00
2022-07-31T13:19:23.335Z,4.50
2022-07-31T13:21:52.195Z,4.50
2022-07-31T13:24:25.800Z,4.00
2022-07-31T13:26:58.176Z,3.90
2022-07-31T13:29:30.416Z,4.20
2022-07-31T13:31:59.562Z,3.70
2022-07-31T13:34:28.528Z,3.50
2022-07-31T13:36:57.843Z,3.60
2022-07-31T13:39:26.777Z,3.40
2022-07-31T13:41:55.580Z,3.40
2022-07-31T13:44:24.487Z,4.20
2022-07-31T13:46:53.524Z,3.80
2022-07-31T13:49:22.422Z,3.80
2022-07-31T13:51:51.853Z,4.00
2022-07-31T13:54:23.761Z,3.80
2022-07-31T13:56:52.690Z,3.90
2022-07-31T13:59:22.153Z,4.20
2022-07-31T14:02:03.359Z,4.00
2022-07-31T14:04:38.685Z,4.30
2022-07-31T14:07:09.587Z,4.60
2022-07-31T14:09:47.121Z,3.90
2022-07-31T14:12:24.288Z,4.60
2022-07-31T14:14:53.506Z,4.50
2022-07-31T14:17:24.807Z,4.50
2022-07-31T14:19:54.789Z,5.10
2022-07-31T14:22:23.731Z,4.00
2022-07-31T14:24:52.582Z,4.70
2022-07-31T14:27:21.451Z,3.90
2022-07-31T14:29:50.424Z,4.60
2022-07-31T14:32:21.743Z,4.90
2022-07-31T14:34:50.820Z,4.40
2022-07-31T14:37:20.140Z,4.50
2022-07-31T14:39:49.132Z,4.10
2022-07-31T14:42:22.027Z,5.10
2022-07-31T14:44:54.465Z,4.40
2022-07-31T14:47:23.583Z,4.50
2022-07-31T14:50:08.924Z,4.60
2022-07-31T14:52:38.985Z,4.20
2022-07-31T14:55:09.654Z,4.30
2022-07-31T14:57:38.605Z,4.40
2022-07-31T15:00:12.299Z,4.00
2022-07-31T15:02:41.591Z,4.80
2022-07-31T15:06:38.740Z,3.90
2022-07-31T15:08:00.384Z,3.70
2022-07-31T15:10:33.079Z,3.60
2022-07-31T15:15:33.869Z,4.40
2022-07-31T15:18:03.473Z,11.80
2022-07-31T15:20:33.621Z,4.40
2022-07-31T15:23:03.165Z,3.90
2022-07-31T15:25:32.106Z,5.00
2022-07-31T15:28:01.034Z,4.20
2022-07-31T15:30:30.064Z,4.80
2022-07-31T15:32:58.972Z,4.70
2022-07-31T15:35:28.464Z,4.20
2022-07-31T15:37:58.886Z,4.50
2022-07-31T15:40:30.028Z,4.30
2022-07-31T15:43:03.093Z,4.40
2022-07-31T15:45:32.335Z,3.80
2022-07-31T15:48:01.861Z,4.30
2022-07-31T15:50:31.101Z,4.20
2022-07-31T15:53:00.222Z,5.30
2022-07-31T15:55:32.084Z,4.90
2022-07-31T15:58:01.103Z,5.20
2022-07-31T16:00:30.167Z,3.60
2022-07-31T16:02:59.906Z,3.80
2022-07-31T16:05:36.943Z,4.80
2022-07-31T16:08:30.191Z,3.70
2022-07-31T16:10:58.416Z,3.70
2022-07-31T16:13:27.569Z,3.60
2022-07-31T16:15:56.848Z,4.20
2022-07-31T16:18:25.871Z,3.70
2022-07-31T16:20:54.827Z,3.90
2022-07-31T16:23:25.096Z,4.10
2022-07-31T16:25:58.547Z,4.10
2022-07-31T16:28:27.278Z,28.30
2022-07-31T16:30:56.197Z,12.00
2022-07-31T16:33:25.098Z,9.00
2022-07-31T16:35:54.831Z,11.40
2022-07-31T16:38:23.685Z,6.90
2022-07-31T16:40:54.671Z,5.70
2022-07-31T16:43:50.928Z,5.00
2022-07-31T16:46:16.498Z,4.80
2022-07-31T16:48:45.338Z,4.30
2022-07-31T16:51:14.170Z,4.40
2022-07-31T16:54:10.483Z,3.30
2022-07-31T16:56:32.159Z,4.30
2022-07-31T16:59:04.028Z,6.00
2022-07-31T17:01:56.945Z,6.10
2022-07-31T17:04:25.923Z,5.10
2022-07-31T17:06:55.047Z,4.10
2022-07-31T17:09:24.758Z,5.60
2022-07-31T17:11:56.234Z,5.60
2022-07-31T17:14:27.120Z,4.10
2022-07-31T17:16:57.202Z,4.70
2022-07-31T17:19:42.605Z,4.90
2022-07-31T17:22:18.058Z,4.30
2022-07-31T17:24:51.658Z,4.10
2022-07-31T17:27:21.963Z,4.50
2022-07-31T17:29:51.050Z,6.40
2022-07-31T17:32:20.452Z,6.30
2022-07-31T17:34:52.423Z,5.90
2022-07-31T17:37:21.396Z,6.10
2022-07-31T17:39:54.644Z,5.60
2022-07-31T17:42:28.337Z,6.60
2022-07-31T17:47:30.424Z,5.00
2022-07-31T17:50:02.988Z,4.60
2022-07-31T17:52:32.032Z,4.70
2022-07-31T17:55:01.279Z,4.20
2022-07-31T17:57:32.104Z,5.00
2022-07-31T18:00:02.921Z,4.40
2022-07-31T18:02:33.557Z,4.10
2022-07-31T18:05:02.642Z,3.50
2022-07-31T18:07:35.243Z,4.20
2022-07-31T18:10:08.406Z,4.00
2022-07-31T18:12:38.207Z,4.40
2022-07-31T18:15:35.806Z,4.30
2022-07-31T18:18:06.356Z,4.10
2022-07-31T18:23:03.820Z,4.20
2022-07-31T18:25:35.618Z,3.80
2022-07-31T18:28:08.714Z,3.90
2022-07-31T18:30:40.347Z,4.30
2022-07-31T18:33:13.527Z,4.20
2022-07-31T18:35:42.884Z,9.30
2022-07-31T18:38:12.269Z,6.60
2022-07-31T18:40:42.496Z,5.50
2022-07-31T18:43:11.546Z,8.50
2022-07-31T18:45:41.514Z,4.40
2022-07-31T18:48:11.173Z,6.40
2022-07-31T18:50:59.547Z,4.30
2022-07-31T18:53:34.161Z,4.70
2022-07-31T18:56:04.485Z,4.40
2022-07-31T18:58:34.708Z,4.80
2022-07-31T19:01:08.438Z,4.10
2022-07-31T19:03:40.261Z,4.20
2022-07-31T19:06:12.187Z,4.60
2022-07-31T19:08:42.562Z,4.40
2022-07-31T19:11:13.570Z,4.00
2022-07-31T19:13:44.193Z,5.20
2022-07-31T19:16:17.867Z,4.50
2022-07-31T19:18:50.379Z,4.80
2022-07-31T19:21:42.166Z,4.40
2022-07-31T19:24:12.100Z,4.30
2022-07-31T19:26:42.818Z,4.80
2022-07-31T19:29:13.320Z,4.40
2022-07-31T19:31:44.673Z,4.70
2022-07-31T19:34:16.022Z,5.10
2022-07-31T19:36:51.527Z,4.90
2022-07-31T19:39:21.373Z,4.20
2022-07-31T19:42:11.938Z,4.60
2022-07-31T19:44:43.245Z,4.60
2022-07-31T19:47:13.023Z,4.60
2022-07-31T19:49:46.112Z,4.90
2022-07-31T19:52:19.728Z,4.60
2022-07-31T19:54:50.615Z,4.80
2022-07-31T19:57:20.389Z,4.30
2022-07-31T19:59:50.868Z,4.60
2022-07-31T20:02:25.786Z,4.40
2022-07-31T20:04:58.125Z,4.20
2022-07-31T20:07:32.742Z,4.50
2022-07-31T20:10:06.754Z,4.50
2022-07-31T20:12:36.948Z,4.80
2022-07-31T20:15:08.139Z,4.50
2022-07-31T20:17:38.376Z,4.10
2022-07-31T20:20:15.595Z,4.90
2022-07-31T20:22:47.432Z,4.20
2022-07-31T20:25:20.513Z,4.40
2022-07-31T20:27:50.762Z,4.80
2022-07-31T20:30:23.799Z,6.00
2022-07-31T20:32:54.635Z,4.70
2022-07-31T20:35:31.241Z,4.70
2022-07-31T20:38:21.346Z,4.60
2022-07-31T20:40:55.689Z,5.00
2022-07-31T20:43:27.188Z,5.10
2022-07-31T20:45:57.540Z,5.10
2022-07-31T20:48:30.762Z,4.60
2022-07-31T20:51:00.724Z,4.80
2022-07-31T20:53:30.432Z,4.50
2022-07-31T20:56:00.131Z,5.40
2022-07-31T20:58:28.997Z,4.80
2022-07-31T21:00:57.897Z,4.90
2022-07-31T21:03:26.857Z,4.90
2022-07-31T21:05:56.229Z,4.50
2022-07-31T21:08:25.423Z,5.50
2022-07-31T21:10:54.550Z,5.00
2022-07-31T21:13:25.953Z,5.30
2022-07-31T21:15:55.583Z,5.10
2022-07-31T21:18:24.538Z,5.10
2022-07-31T21:20:53.974Z,5.50
2022-07-31T21:23:24.091Z,5.30
2022-07-31T21:25:54.255Z,5.10
2022-07-31T21:28:28.632Z,5.60
2022-07-31T21:31:01.516Z,4.90
2022-07-31T21:33:31.202Z,5.10
2022-07-31T21:36:01.311Z,5.00
2022-07-31T21:38:30.846Z,5.20
2022-07-31T21:41:00.608Z,5.50
2022-07-31T21:43:33.484Z,5.20
2022-07-31T21:46:22.761Z,5.50
2022-07-31T21:48:52.990Z,5.80
2022-07-31T21:51:22.541Z,6.10
2022-07-31T21:53:55.275Z,5.40
2022-07-31T21:56:24.304Z,5.70
2022-07-31T21:58:53.168Z,5.10
2022-07-31T22:01:22.642Z,5.60
2022-07-31T22:03:51.604Z,5.70
2022-07-31T22:06:39.066Z,6.30
2022-07-31T22:09:08.259Z,5.50
2022-07-31T22:11:37.154Z,5.70
2022-07-31T22:14:06.008Z,5.70
2022-07-31T22:16:36.678Z,6.00
2022-07-31T22:19:08.932Z,6.10
2022-07-31T22:21:38.403Z,5.90
2022-07-31T22:24:10.094Z,6.00
2022-07-31T22:27:02.074Z,5.80
2022-07-31T22:29:35.881Z,5.80
2022-07-31T22:32:06.081Z,5.80
2022-07-31T22:37:08.574Z,5.50
2022-07-31T22:39:38.572Z,5.90
2022-07-31T22:42:08.855Z,6.30
2022-07-31T22:44:40.658Z,6.40
2022-07-31T22:47:10.823Z,6.00
2022-07-31T22:49:40.340Z,6.30
2022-07-31T22:52:11.463Z,6.40
2022-07-31T22:54:40.728Z,5.90
2022-07-31T22:57:09.593Z,6.10
2022-07-31T22:59:38.997Z,6.10
2022-07-31T23:02:15.396Z,5.90
2022-07-31T23:04:44.509Z,6.00
2022-07-31T23:07:13.286Z,5.20
2022-07-31T23:09:42.423Z,6.30
2022-07-31T23:12:11.668Z,6.20
2022-07-31T23:14:40.605Z,5.90
2022-07-31T23:17:09.365Z,6.30
2022-07-31T23:19:54.067Z,6.00
2022-07-31T23:22:33.190Z,6.50
2022-07-31T23:25:04.681Z,6.60
2022-07-31T23:27:34.298Z,7.00
2022-07-31T23:30:03.890Z,7.60
2022-07-31T23:32:33.440Z,7.30
2022-07-31T23:35:02.208Z,7.60
2022-07-31T23:37:31.004Z,7.40
2022-07-31T23:40:00.457Z,7.30
2022-07-31T23:42:38.415Z,6.80
2022-07-31T23:45:11.621Z,7.10
2022-07-31T23:47:46.227Z,7.20
2022-07-31T23:50:16.370Z,6.90
2022-07-31T23:52:45.866Z,6.50
2022-07-31T23:55:14.660Z,6.70
2022-07-31T23:57:43.449Z,6.20
